Time;durP1;ratioP1;P1;durP2;ratioP2;P2;SDS_P1;SDS_P2;PMS_P1;PMS_P2;Temp;Humidity;BMP_temperature;BMP_pressure;BME280_temperature;BME280_humidity;BME280_pressure;Samples;Min_cycle;Max_cycle;Signal;HPM_P1;HPM_P2
2022/11/11 00:01:58;;;;;;;24.10;12.90;;;;;;;-0.22;71.68;101562.66;4880084;28;20082;-68
2022/11/11 00:05:12;;;;;;;19.23;12.13;;;;;;;0.08;69.54;101582.91;4820732;28;20310;-68
2022/11/11 00:07:50;;;;;;;14.63;8.63;;;;;;;0.22;68.40;101566.44;4857458;28;20250;-68
2022/11/11 00:10:24;;;;;;;16.77;7.78;;;;;;;0.36;66.16;101575.66;4878039;28;20061;-68
2022/11/11 00:13:25;;;;;;;12.25;7.45;;;;;;;0.46;63.29;101566.69;4883444;28;20066;-68
2022/11/11 00:25:04;;;;;;;12.18;7.07;;;;;;;0.60;63.02;101575.00;4880019;28;20106;-67
2022/11/11 00:25:43;;;;;;;12.88;6.60;;;;;;;0.88;61.14;101571.13;4842659;28;20056;-66
2022/11/11 00:28:23;;;;;;;12.38;6.10;;;;;;;0.97;62.24;101566.34;4886750;28;20321;-66
2022/11/11 00:31:14;;;;;;;12.48;6.60;;;;;;;1.04;60.12;101568.38;4887233;28;20056;-66
2022/11/11 00:34:00;;;;;;;15.50;7.05;;;;;;;1.14;60.82;101575.69;4880439;28;20055;-66
2022/11/11 00:36:35;;;;;;;14.02;7.40;;;;;;;1.28;60.57;101564.28;4914272;28;20484;-65
2022/11/11 00:39:24;;;;;;;18.85;8.45;;;;;;;1.43;60.87;101558.03;4847671;28;20083;-65
2022/11/11 00:42:00;;;;;;;14.57;7.45;;;;;;;1.50;59.23;101549.75;4903635;28;20116;-65
2022/11/11 00:44:43;;;;;;;8.85;5.80;;;;;;;1.52;57.09;101553.22;4889847;28;20037;-64
2022/11/11 00:53:46;;;;;;;23.88;7.18;;;;;;;1.72;56.11;101552.38;4900131;28;20041;-64
2022/11/11 00:56:31;;;;;;;12.52;6.55;;;;;;;1.86;57.88;101554.59;4890184;28;20133;-66
2022/11/11 00:59:10;;;;;;;12.65;5.63;;;;;;;1.86;54.14;101541.72;4909320;28;20058;-63
2022/11/11 01:01:55;;;;;;;10.70;5.82;;;;;;;1.87;53.15;101543.47;4899324;28;20041;-63
2022/11/11 01:04:45;;;;;;;10.63;5.68;;;;;;;1.85;50.35;101556.31;4868141;28;20068;-63
2022/11/11 01:16:27;;;;;;;9.48;3.85;;;;;;;2.14;47.91;101547.13;4927330;28;20056;-65
2022/11/11 01:19:08;;;;;;;12.40;3.50;;;;;;;2.19;47.70;101549.00;4871653;28;20346;-65
2022/11/11 01:21:57;;;;;;;6.03;3.28;;;;;;;2.16;46.82;101542.03;4862336;28;20051;-64
2022/11/11 01:24:46;;;;;;;5.43;3.20;;;;;;;2.28;46.85;101541.63;4920458;28;20044;-64
2022/11/11 01:27:37;;;;;;;5.55;3.00;;;;;;;2.30;45.98;101545.16;4902402;28;20054;-63
2022/11/11 01:30:55;;;;;;;8.88;3.17;;;;;;;2.40;45.30;101534.34;4891904;28;20657;-64
2022/11/11 01:33:40;;;;;;;4.68;2.80;;;;;;;2.36;42.71;101540.19;4842105;28;20049;-64
2022/11/11 01:39:10;;;;;;;4.68;2.40;;;;;;;2.26;43.48;101499.41;4896010;28;20046;-63
2022/11/11 01:41:51;;;;;;;4.32;2.38;;;;;;;2.59;43.35;101526.44;4917112;28;20044;-64
2022/11/11 01:44:47;;;;;;;4.20;2.72;;;;;;;2.65;42.64;101525.81;4906384;28;20450;-63
2022/11/11 01:53:36;;;;;;;8.55;2.72;;;;;;;2.90;44.89;101514.66;4901904;28;20056;-63
2022/11/11 01:56:25;;;;;;;9.63;2.85;;;;;;;3.08;45.45;101500.59;4850450;28;20060;-64
2022/11/11 01:59:18;;;;;;;9.40;3.00;;;;;;;3.16;44.76;101494.84;4907417;28;20051;-64
2022/11/11 02:02:00;;;;;;;9.57;2.92;;;;;;;3.16;43.50;101494.00;4914018;28;20048;-64
2022/11/11 02:07:44;;;;;;;4.22;2.55;;;;;;;3.21;45.70;101488.13;4869904;28;20123;-63
2022/11/11 02:10:43;;;;;;;4.55;2.55;;;;;;;3.21;44.36;101492.44;4879255;28;20116;-63
2022/11/11 02:16:33;;;;;;;6.03;2.50;;;;;;;3.25;44.84;101468.47;4911160;28;20044;-64
2022/11/11 02:19:25;;;;;;;9.35;2.95;;;;;;;3.30;45.01;101460.88;4894171;28;20056;-64
2022/11/11 02:22:02;;;;;;;5.38;3.17;;;;;;;3.44;45.84;101470.84;4912508;28;20052;-63
2022/11/11 02:24:50;;;;;;;8.32;3.13;;;;;;;3.38;44.50;101460.28;4862640;28;20366;-64
2022/11/11 02:27:34;;;;;;;6.43;2.40;;;;;;;3.27;42.91;101461.66;4868161;28;20564;-63
2022/11/11 02:30:32;;;;;;;5.43;2.83;;;;;;;3.27;45.65;101461.66;4878619;28;20040;-64
2022/11/11 02:33:18;;;;;;;4.72;2.67;;;;;;;3.34;45.55;101448.09;4904968;28;20116;-63
2022/11/11 02:36:09;;;;;;;3.42;2.72;;;;;;;3.50;44.86;101461.53;4870313;28;20115;-63
2022/11/11 02:38:50;;;;;;;8.23;2.42;;;;;;;3.39;43.22;101451.69;4875260;28;20054;-63
2022/11/11 02:47:34;;;;;;;5.78;2.65;;;;;;;3.40;44.05;101453.47;4827128;28;20080;-64
2022/11/11 02:50:21;;;;;;;5.72;2.80;;;;;;;3.30;45.63;101415.25;4885519;28;20362;-64
2022/11/11 02:52:59;;;;;;;11.98;2.50;;;;;;;3.69;45.14;101450.91;4893861;28;20062;-64
2022/11/11 02:55:46;;;;;;;4.60;2.45;;;;;;;3.79;45.37;101442.59;4892411;28;21210;-64
2022/11/11 02:58:26;;;;;;;4.72;2.50;;;;;;;3.95;45.56;101445.66;4905160;28;20108;-63
2022/11/11 03:01:18;;;;;;;3.83;2.40;;;;;;;4.00;43.51;101444.09;4865915;28;20034;-64
2022/11/11 03:04:10;;;;;;;5.03;2.53;;;;;;;3.94;41.36;101430.94;4880967;28;20052;-64
2022/11/11 03:06:54;;;;;;;5.57;2.38;;;;;;;3.86;41.95;101429.00;4806930;28;20330;-64
2022/11/11 03:09:44;;;;;;;17.95;2.25;;;;;;;3.89;42.96;101433.41;4890893;28;20053;-64
2022/11/11 03:12:42;;;;;;;4.53;2.00;;;;;;;3.72;42.04;101395.81;4881222;28;20210;-64
2022/11/11 03:15:36;;;;;;;3.72;2.10;;;;;;;4.02;43.61;101439.81;4884822;28;20310;-63
2022/11/11 03:18:30;;;;;;;4.03;2.10;;;;;;;4.05;44.33;101437.34;4875872;28;20065;-63
2022/11/11 03:21:12;;;;;;;6.13;2.17;;;;;;;4.01;42.50;101432.88;4877568;28;20060;-63
2022/11/11 03:24:22;;;;;;;2.90;2.05;;;;;;;3.99;43.30;101437.13;4906708;28;21459;-64
2022/11/11 03:27:06;;;;;;;5.13;2.38;;;;;;;4.02;43.13;101424.28;4893707;28;20142;-63
2022/11/11 03:32:33;;;;;;;11.10;3.38;;;;;;;3.82;42.43;101426.28;4917326;28;20051;-63
2022/11/11 03:35:30;;;;;;;11.40;3.85;;;;;;;3.92;42.13;101437.78;4879072;28;20368;-63
2022/11/11 03:38:26;;;;;;;26.35;8.00;;;;;;;3.89;42.57;101438.56;4907835;28;20087;-64
2022/11/11 03:44:45;;;;;;;6.05;2.58;;;;;;;3.93;41.64;101445.59;4861050;28;20082;-63
2022/11/11 03:47:41;;;;;;;3.45;2.25;;;;;;;3.85;40.74;101437.63;4901620;28;20037;-64
2022/11/11 03:50:21;;;;;;;5.53;2.55;;;;;;;3.85;41.73;101436.75;4892511;28;20057;-63
2022/11/11 03:52:57;;;;;;;10.52;2.65;;;;;;;3.80;41.86;101448.66;4846334;28;20045;-63
2022/11/11 03:55:42;;;;;;;3.92;2.30;;;;;;;3.74;41.03;101444.16;4857303;28;20073;-63
2022/11/11 03:58:25;;;;;;;3.67;2.10;;;;;;;3.65;41.77;101429.25;4870382;28;20053;-62
2022/11/11 04:10:21;;;;;;;3.47;2.33;;;;;;;3.73;41.33;101449.28;4896003;28;20100;-64
2022/11/11 04:10:26;;;;;;;4.18;1.95;;;;;;;3.59;40.40;101434.22;4853172;28;20062;-63
2022/11/11 04:16:19;;;;;;;2.75;1.83;;;;;;;3.53;40.58;101433.19;4861424;28;20160;-63
2022/11/11 04:22:01;;;;;;;6.25;2.08;;;;;;;3.46;41.53;101417.47;4886555;28;20044;-63
2022/11/11 04:27:28;;;;;;;2.63;1.90;;;;;;;3.44;41.63;101424.31;4902482;28;20046;-62
2022/11/11 04:30:19;;;;;;;5.32;2.00;;;;;;;3.40;40.91;101437.97;4898677;28;20056;-63
2022/11/11 04:33:08;;;;;;;6.65;2.10;;;;;;;3.43;42.06;101437.19;4883346;28;20057;-63
2022/11/11 04:35:55;;;;;;;5.55;2.50;;;;;;;3.21;40.74;101404.63;4880177;28;20334;-64
2022/11/11 04:47:34;;;;;;;2.60;2.33;;;;;;;3.39;42.12;101436.19;4895728;28;20042;-63
2022/11/11 04:50:10;;;;;;;;;;;;;;;3.45;43.25;101441.56;4888135;28;20041;-63
2022/11/11 04:53:01;;;;;;;5.40;2.10;;;;;;;3.45;43.01;101440.69;4894353;28;19926;-64
2022/11/11 04:58:31;;;;;;;6.50;2.50;;;;;;;3.38;43.48;101439.63;4842319;28;20048;-62
2022/11/11 05:04:12;;;;;;;4.82;2.17;;;;;;;3.21;43.75;101435.59;4854987;28;21319;-64
2022/11/11 05:22:10;;;;;;;5.47;2.38;;;;;;;3.19;44.22;101421.75;4828739;28;20038;-65
2022/11/11 05:27:55;;;;;;;15.48;2.83;;;;;;;3.10;44.46;101427.53;4885128;28;21170;-64
2022/11/11 05:30:42;;;;;;;8.18;2.00;;;;;;;3.05;44.20;101425.63;4906233;28;20215;-64
2022/11/11 05:33:20;;;;;;;2.97;2.10;;;;;;;3.05;45.03;101429.09;4899670;28;20120;-64
2022/11/11 05:36:03;;;;;;;7.00;2.30;;;;;;;3.02;43.96;101434.13;4883792;28;20321;-64
2022/11/11 05:38:51;;;;;;;17.15;2.67;;;;;;;2.94;44.04;101441.59;4898286;28;20049;-64
2022/11/11 05:41:32;;;;;;;6.15;2.65;;;;;;;2.87;43.88;101439.69;4898607;28;20073;-64
2022/11/11 05:44:17;;;;;;;10.93;2.17;;;;;;;2.76;43.84;101435.84;4868830;28;20049;-62
2022/11/11 05:47:04;;;;;;;11.88;2.70;;;;;;;2.74;45.93;101443.50;4879206;28;20062;-65
2022/11/11 05:50:07;;;;;;;5.72;2.30;;;;;;;2.74;46.79;101442.66;4891655;28;20073;-62
2022/11/11 05:53:09;;;;;;;6.70;2.53;;;;;;;2.66;46.79;101434.66;4892623;28;20073;-63
2022/11/11 05:56:18;;;;;;;4.30;2.17;;;;;;;2.65;46.55;101444.94;4874778;28;20052;-64
2022/11/11 05:58:55;;;;;;;4.03;2.20;;;;;;;2.64;47.06;101450.91;4838750;28;20066;-64
2022/11/11 06:01:36;;;;;;;7.30;2.38;;;;;;;2.51;47.32;101449.59;4865238;28;20411;-62
2022/11/11 06:04:46;;;;;;;3.90;2.13;;;;;;;2.53;47.89;101461.72;4873533;28;20045;-63
2022/11/11 06:07:42;;;;;;;6.00;2.80;;;;;;;2.46;47.43;101459.75;4897164;28;20073;-62
2022/11/11 06:10:37;;;;;;;3.88;2.50;;;;;;;2.18;47.95;101418.31;4878837;28;20087;-62
2022/11/11 06:13:34;;;;;;;5.43;2.20;;;;;;;2.33;48.05;101470.47;4859253;28;20055;-65
2022/11/11 06:16:23;;;;;;;11.40;2.28;;;;;;;2.21;48.15;101470.00;4885646;28;20067;-63
2022/11/11 06:19:36;;;;;;;5.40;2.40;;;;;;;2.18;49.45;101469.91;4883578;28;20054;-65
2022/11/11 06:22:55;;;;;;;4.93;2.67;;;;;;;2.11;49.52;101466.19;4917716;28;20096;-63
2022/11/11 06:28:22;;;;;;;5.55;2.42;;;;;;;1.81;48.88;101478.81;4897661;28;20042;-63
2022/11/11 06:31:07;;;;;;;5.85;2.28;;;;;;;1.49;48.45;101452.66;4857166;28;20539;-63
2022/11/11 06:33:49;;;;;;;5.95;2.25;;;;;;;1.21;48.97;101436.09;4880944;28;21049;-63
2022/11/11 06:36:35;;;;;;;6.88;3.63;;;;;;;1.48;50.32;101489.53;4850718;28;20420;-64
2022/11/11 06:39:54;;;;;;;7.97;2.53;;;;;;;1.39;50.71;101490.03;4892036;28;20048;-64
2022/11/11 06:42:56;;;;;;;10.05;4.43;;;;;;;1.11;50.54;101446.84;4848250;28;20054;-64
2022/11/11 06:48:49;;;;;;;11.23;3.40;;;;;;;1.12;50.57;101482.06;4888096;28;20068;-64
2022/11/11 06:52:09;;;;;;;9.38;3.20;;;;;;;0.95;51.66;101481.38;4868361;28;20624;-64
2022/11/11 06:55:01;;;;;;;14.55;3.95;;;;;;;0.86;52.88;101474.13;4883528;28;20041;-64
2022/11/11 06:57:38;;;;;;;15.63;8.63;;;;;;;0.84;54.22;101478.31;4859175;28;20091;-65
2022/11/11 07:00:23;;;;;;;23.92;12.88;;;;;;;0.79;54.73;101473.81;4891554;28;20109;-65
2022/11/11 07:06:20;;;;;;;;;;;;;;;;;;;;;
2022/11/11 07:09:09;;;;;;;16.25;9.88;;;;;;;0.48;54.89;101484.47;4801088;28;20053;-63
2022/11/11 07:12:05;;;;;;;9.60;6.35;;;;;;;0.42;55.51;101482.50;4893019;28;20044;-64
2022/11/11 07:14:48;;;;;;;9.73;4.47;;;;;;;0.12;54.93;101456.31;4885377;28;20049;-63
2022/11/11 07:20:39;;;;;;;6.22;4.18;;;;;;;0.15;55.07;101492.41;4912618;28;20049;-65
2022/11/11 07:23:43;;;;;;;7.72;3.03;;;;;;;0.06;55.41;101486.88;4884575;28;20067;-65
2022/11/11 07:26:26;;;;;;;8.55;4.60;;;;;;;-0.16;55.71;101488.44;4879838;28;20110;-64
2022/11/11 07:29:14;;;;;;;11.55;6.15;;;;;;;-0.24;56.72;101479.50;4889118;28;21058;-64
2022/11/11 07:32:00;;;;;;;20.83;7.43;;;;;;;-0.33;56.90;101471.38;4880846;28;20509;-68
2022/11/11 07:34:52;;;;;;;13.45;7.55;;;;;;;-0.30;57.24;101486.91;4902933;28;20051;-65
2022/11/11 07:37:36;;;;;;;17.08;8.90;;;;;;;-0.34;57.71;101485.03;4867049;28;20058;-66
2022/11/11 07:40:18;;;;;;;15.57;9.38;;;;;;;-0.32;57.83;101478.28;4838876;28;20990;-65
2022/11/11 07:43:10;;;;;;;11.80;6.72;;;;;;;-0.33;57.92;101491.91;4877652;28;20048;-64
2022/11/11 07:45:55;;;;;;;10.00;4.90;;;;;;;-0.45;58.08;101498.25;4889461;28;20065;-66
2022/11/11 07:48:46;;;;;;;;;;;;;;;-0.50;57.14;101494.56;4842223;28;20045;-65
2022/11/11 07:51:57;;;;;;;9.43;5.53;;;;;;;-0.49;58.94;101500.56;4863953;28;19933;-65
2022/11/11 07:57:33;;;;;;;15.73;6.22;;;;;;;-0.56;58.13;101503.66;4878422;28;20061;-64
2022/11/11 08:00:24;;;;;;;16.08;6.53;;;;;;;-0.94;58.00;101429.13;4903001;28;20135;-64
2022/11/11 08:03:26;;;;;;;12.88;5.63;;;;;;;-0.55;58.75;101496.03;4915354;28;20094;-66
2022/11/11 08:06:22;;;;;;;11.55;4.80;;;;;;;-0.44;58.71;101497.41;4889085;28;20049;-65
2022/11/11 08:09:00;;;;;;;13.95;5.00;;;;;;;-0.55;58.19;101493.47;4894390;28;20056;-66
2022/11/11 08:14:39;;;;;;;8.63;4.68;;;;;;;-0.52;59.15;101503.00;4879090;28;20060;-63
2022/11/11 08:17:36;;;;;;;15.82;4.03;;;;;;;-0.56;58.31;101504.53;4924864;28;20053;-63
2022/11/11 08:20:25;;;;;;;7.85;3.38;;;;;;;-0.69;58.43;101497.03;4933636;28;20052;-64
2022/11/11 08:26:31;;;;;;;15.48;7.10;;;;;;;-0.92;59.29;101489.09;4915132;28;20147;-65
2022/11/11 08:29:33;;;;;;;15.13;7.82;;;;;;;-1.05;60.04;101494.41;4926476;28;20051;-64
2022/11/11 08:32:24;;;;;;;13.95;7.35;;;;;;;-1.08;60.51;101499.38;4893482;28;20099;-63
2022/11/11 08:35:15;;;;;;;16.27;6.07;;;;;;;-1.09;61.21;101489.94;4880803;28;20178;-63
2022/11/11 08:38:05;;;;;;;12.23;4.72;;;;;;;-1.12;61.77;101485.53;4904147;28;20057;-63
2022/11/11 08:40:57;;;;;;;7.50;4.32;;;;;;;-1.06;61.35;101484.94;4889504;28;20072;-64
2022/11/11 08:43:56;;;;;;;8.38;3.47;;;;;;;-1.03;61.11;101492.78;4914669;28;20060;-63
2022/11/11 08:47:09;;;;;;;6.22;3.63;;;;;;;-1.12;61.82;101484.66;4882729;28;20052;-62
2022/11/11 08:53:37;;;;;;;8.85;5.43;;;;;;;-1.19;62.88;101493.72;4882974;28;20067;-64
2022/11/11 08:56:22;;;;;;;14.95;5.65;;;;;;;-1.31;62.58;101488.84;4905768;28;20065;-63
2022/11/11 08:59:08;;;;;;;9.23;4.20;;;;;;;-1.38;62.77;101504.69;4863396;28;20050;-63
2022/11/11 09:02:13;;;;;;;5.57;3.55;;;;;;;-1.45;63.08;101505.19;4896297;28;20121;-64
2022/11/11 09:08:10;;;;;;;9.55;3.90;;;;;;;-1.44;63.56;101506.97;4872875;28;20076;-64
2022/11/11 09:11:13;;;;;;;9.27;4.53;;;;;;;-1.49;63.35;101503.28;4869515;28;20064;-63
2022/11/11 09:13:58;;;;;;;8.60;4.25;;;;;;;-1.43;63.25;101508.72;4814767;28;20075;-64
2022/11/11 09:16:39;;;;;;;10.10;4.60;;;;;;;-1.40;63.67;101503.75;4825074;28;20083;-64
2022/11/11 09:19:42;;;;;;;10.38;4.75;;;;;;;-1.37;63.95;101506.47;4818758;28;20066;-63
2022/11/11 09:22:27;;;;;;;14.63;4.60;;;;;;;-1.45;64.19;101505.19;4829284;28;20047;-64
2022/11/11 09:25:06;;;;;;;12.55;4.72;;;;;;;-1.39;63.92;101505.50;4821799;28;20058;-64
2022/11/11 09:27:56;;;;;;;16.48;5.25;;;;;;;-1.46;64.84;101480.34;4825644;28;20050;-64
2022/11/11 09:31:09;;;;;;;11.57;5.10;;;;;;;-1.25;64.93;101507.91;4795314;28;20050;-64
2022/11/11 09:34:19;;;;;;;26.35;6.45;;;;;;;-1.21;65.41;101482.50;4827921;28;20472;-64
2022/11/11 09:37:12;;;;;;;13.65;5.35;;;;;;;-1.04;65.30;101498.75;4821097;28;20050;-64
2022/11/11 09:39:55;;;;;;;14.18;5.78;;;;;;;-0.92;65.76;101498.47;4804594;28;20536;-64
2022/11/11 09:43:16;;;;;;;9.93;5.30;;;;;;;-0.88;64.52;101485.84;4826698;28;20189;-63
2022/11/11 09:46:30;;;;;;;11.88;5.45;;;;;;;-0.89;64.39;101504.63;4900539;28;20049;-64
2022/11/11 09:49:55;;;;;;;11.63;5.47;;;;;;;-0.87;64.41;101497.91;4883677;28;20041;-63
2022/11/11 09:53:20;;;;;;;15.95;5.38;;;;;;;-0.87;64.10;101492.75;4836155;28;20088;-63
2022/11/11 09:56:20;;;;;;;12.27;5.65;;;;;;;-1.20;63.86;101439.75;4842485;28;20117;-64
2022/11/11 09:59:33;;;;;;;8.82;4.43;;;;;;;-1.01;64.34;101475.78;4903715;28;20357;-63
2022/11/11 10:06:55;;;;;;;11.07;3.50;;;;;;;-0.91;64.35;101501.09;4772353;28;20141;-64
2022/11/11 10:10:03;;;;;;;9.60;4.25;;;;;;;-1.00;64.25;101495.53;4839464;28;20062;-65
2022/11/11 10:13:04;;;;;;;8.32;4.00;;;;;;;-1.09;64.86;101484.81;4805965;28;20175;-64
2022/11/11 10:23:34;;;;;;;8.18;4.57;;;;;;;-1.12;65.75;101469.25;4748107;29;20040;-66
2022/11/11 10:26:34;;;;;;;8.00;3.60;;;;;;;-1.10;65.66;101462.50;4800558;29;20103;-63
2022/11/11 10:29:24;;;;;;;7.18;3.42;;;;;;;-1.50;65.72;101398.97;4802088;29;20071;-61
2022/11/11 10:32:56;;;;;;;8.60;3.70;;;;;;;-1.25;66.10;101446.34;4800207;29;21031;-61
2022/11/11 10:35:49;;;;;;;9.30;3.35;;;;;;;-1.42;66.16;101427.53;4762390;29;20108;-62
2022/11/11 10:39:02;;;;;;;12.00;3.50;;;;;;;-1.34;66.70;101447.66;4797095;29;20448;-62
2022/11/11 10:42:19;;;;;;;8.00;3.88;;;;;;;-1.31;66.88;101450.38;4800096;28;20168;-62
2022/11/11 10:45:13;;;;;;;11.48;4.95;;;;;;;-1.24;67.15;101448.13;4824956;28;21436;-62
2022/11/11 10:52:39;;;;;;;12.13;3.40;;;;;;;-1.21;67.13;101435.44;4754792;29;20193;-62
2022/11/11 10:55:48;;;;;;;8.50;4.10;;;;;;;-1.19;67.20;101441.53;4694529;29;20072;-63
2022/11/11 10:58:37;;;;;;;11.15;4.20;;;;;;;-1.17;66.79;101439.94;4692634;29;20104;-63
2022/11/11 11:01:36;;;;;;;11.90;4.93;;;;;;;-1.50;66.94;101388.69;4700706;29;20434;-63
2022/11/11 11:04:51;;;;;;;11.90;4.75;;;;;;;-1.26;67.03;101434.34;4723063;29;20052;-63
2022/11/11 11:10:45;;;;;;;63.35;20.80;;;;;;;-1.37;66.72;101431.25;4733223;29;20052;-63
2022/11/11 11:13:39;;;;;;;49.85;18.58;;;;;;;-1.59;66.94;101419.03;4734748;29;20374;-61
2022/11/11 11:16:31;;;;;;;42.50;17.30;;;;;;;-1.73;67.16;101429.41;4742335;29;20054;-60
2022/11/11 11:19:24;;;;;;;49.70;16.58;;;;;;;-2.53;67.06;101321.03;4721542;29;20066;-62
2022/11/11 11:22:21;;;;;;;62.63;20.90;;;;;;;-2.00;67.77;101420.28;4742199;29;20048;-61
2022/11/11 11:25:39;;;;;;;78.45;24.05;;;;;;;-2.08;68.07;101411.31;4753325;29;20044;-64
2022/11/11 11:31:11;;;;;;;317.77;92.55;;;;;;;-2.14;68.71;101428.94;4840888;28;20356;-63
2022/11/11 11:34:07;;;;;;;156.57;51.05;;;;;;;-2.19;69.23;101419.31;4823592;28;20066;-63
2022/11/11 11:37:34;;;;;;;85.45;32.00;;;;;;;-2.30;69.23;101412.72;4832550;28;20054;-63
2022/11/11 11:40:10;;;;;;;76.68;29.60;;;;;;;-2.25;70.09;101416.41;4754323;29;20064;-63
2022/11/11 11:42:58;;;;;;;78.03;26.55;;;;;;;-2.30;69.75;101410.16;4751664;29;20089;-63
2022/11/11 11:45:46;;;;;;;64.82;24.70;;;;;;;-2.20;70.60;101415.00;4752988;29;20103;-63
2022/11/11 11:49:26;;;;;;;68.00;24.52;;;;;;;-2.03;70.67;101404.75;4739062;29;20161;-63
2022/11/11 11:52:14;;;;;;;63.88;23.95;;;;;;;-1.99;70.71;101401.56;4755826;29;20312;-62
2022/11/11 11:58:30;;;;;;;66.22;25.50;;;;;;;-2.09;69.94;101378.84;4808465;28;20047;-63
2022/11/11 12:18:22;;;;;;;50.20;19.77;;;;;;;-1.92;70.63;101359.22;4843138;28;20123;-63
2022/11/11 12:21:16;;;;;;;48.33;18.27;;;;;;;-1.96;70.87;101337.69;4902145;28;20482;-63
2022/11/11 12:24:12;;;;;;;50.83;18.92;;;;;;;-1.77;71.14;101348.09;4856014;28;20156;-63
2022/11/11 12:27:10;;;;;;;50.40;17.20;;;;;;;-1.80;71.20;101337.69;4850492;28;20046;-63
2022/11/11 12:30:08;;;;;;;45.50;18.02;;;;;;;-1.69;71.19;101327.09;4864669;28;20332;-64
2022/11/11 12:33:45;;;;;;;39.83;17.52;;;;;;;-1.49;71.00;101339.22;4878851;28;20748;-64
2022/11/11 12:36:46;;;;;;;50.95;18.15;;;;;;;-1.83;71.05;101276.03;4895301;28;20041;-64
2022/11/11 12:39:50;;;;;;;49.10;19.33;;;;;;;-1.45;70.66;101318.03;4813753;28;20046;-63
2022/11/11 12:42:45;;;;;;;61.25;21.00;;;;;;;-1.44;70.57;101309.56;4884558;28;20448;-63
2022/11/11 12:45:24;;;;;;;57.72;22.40;;;;;;;-1.43;70.43;101289.94;4915309;28;20045;-63
2022/11/11 12:48:18;;;;;;;59.10;22.83;;;;;;;-1.34;70.43;101298.94;4901303;28;20059;-64
2022/11/11 12:51:07;;;;;;;55.78;22.67;;;;;;;-1.34;70.52;101291.25;4838722;28;20040;-63
2022/11/11 12:54:11;;;;;;;65.10;25.98;;;;;;;-1.27;70.42;101294.09;4907044;28;20075;-63
2022/11/11 12:56:55;;;;;;;59.10;25.48;;;;;;;-1.24;70.04;101271.19;4909389;28;20049;-63
2022/11/11 13:00:13;;;;;;;62.72;26.38;;;;;;;-1.26;69.52;101275.34;4892193;28;20037;-63
2022/11/11 13:03:27;;;;;;;64.35;24.33;;;;;;;-1.24;69.90;101263.50;4874133;28;20056;-63
2022/11/11 13:09:42;;;;;;;60.95;24.10;;;;;;;-1.11;69.64;101256.44;4852465;28;20037;-63
2022/11/11 13:15:50;;;;;;;49.25;20.13;;;;;;;-1.02;69.55;101245.72;4824059;28;20048;-64
2022/11/11 13:18:52;;;;;;;49.22;20.60;;;;;;;-0.99;68.91;101245.88;4882190;28;20072;-63
2022/11/11 13:21:49;;;;;;;43.75;19.73;;;;;;;-1.23;68.37;101190.88;4929144;28;20051;-63
2022/11/11 13:24:32;;;;;;;50.13;18.45;;;;;;;-1.01;68.43;101226.97;4920140;28;20056;-63
2022/11/11 13:27:32;;;;;;;49.72;17.38;;;;;;;-1.10;68.29;101221.41;4900599;28;20040;-63
2022/11/11 13:30:32;;;;;;;;;;;;;;;-1.17;68.90;101214.25;4884028;28;20047;-63
2022/11/11 13:33:18;;;;;;;45.20;18.45;;;;;;;-1.20;69.36;101209.84;4887235;28;19916;-63
2022/11/11 13:36:09;;;;;;;44.63;18.13;;;;;;;-1.23;68.86;101180.63;4865614;28;20072;-63
2022/11/11 13:38:57;;;;;;;47.63;17.90;;;;;;;-1.11;69.00;101183.75;4876595;28;20072;-63
2022/11/11 13:41:50;;;;;;;45.25;17.80;;;;;;;-1.05;68.84;101171.19;4896165;28;20364;-64
2022/11/11 13:44:53;;;;;;;48.13;19.58;;;;;;;-1.04;68.54;101170.38;4908034;28;20059;-64
2022/11/11 13:47:48;;;;;;;46.55;19.80;;;;;;;-1.34;69.06;101128.84;4901377;28;20048;-63
2022/11/11 13:50:36;;;;;;;50.00;20.13;;;;;;;-1.33;69.15;101126.34;4901373;28;20045;-64
2022/11/11 13:53:37;;;;;;;50.58;20.08;;;;;;;-1.15;69.02;101166.44;4878062;28;20045;-64
2022/11/11 13:56:40;;;;;;;55.42;23.08;;;;;;;-1.21;69.45;101155.94;4896724;28;20344;-65
2022/11/11 13:59:33;;;;;;;52.17;21.02;;;;;;;-1.33;69.97;101146.84;4871051;28;20593;-63
2022/11/11 14:02:46;;;;;;;53.47;20.50;;;;;;;-1.19;69.84;101169.69;4878968;28;20336;-63
2022/11/11 14:05:25;;;;;;;53.92;21.20;;;;;;;-1.23;69.82;101158.41;4896836;28;20056;-63
2022/11/11 14:08:15;;;;;;;47.83;18.58;;;;;;;-1.19;70.06;101154.31;4874252;28;20045;-63
2022/11/11 14:11:04;;;;;;;45.25;19.85;;;;;;;-1.15;69.86;101146.84;4896982;28;20052;-64
2022/11/11 14:13:52;;;;;;;43.22;18.40;;;;;;;-1.04;70.11;101149.00;4878196;28;20323;-64
2022/11/11 14:17:03;;;;;;;47.88;18.25;;;;;;;-1.12;69.17;101136.69;4864935;28;20278;-64
2022/11/11 14:19:48;;;;;;;41.17;16.92;;;;;;;-1.19;69.40;101129.53;4878320;28;20040;-64
2022/11/11 14:22:45;;;;;;;38.25;16.38;;;;;;;-1.08;68.95;101132.56;4868511;28;20042;-65
2022/11/11 14:25:40;;;;;;;34.63;16.63;;;;;;;-1.04;68.60;101139.59;4840747;28;20053;-65
2022/11/11 14:28:34;;;;;;;41.25;18.20;;;;;;;-1.60;69.27;101048.19;4883984;28;20099;-63
2022/11/11 14:31:45;;;;;;;35.85;15.95;;;;;;;-1.00;69.15;101136.38;4907228;28;20041;-64
2022/11/11 14:35:03;;;;;;;37.40;14.18;;;;;;;-0.98;68.85;101124.47;4892979;28;20377;-64
2022/11/11 14:38:08;;;;;;;33.22;14.70;;;;;;;-0.99;69.02;101122.72;4809352;28;20391;-63
2022/11/11 14:41:24;;;;;;;28.45;12.50;;;;;;;-0.92;69.01;101124.75;4807321;28;20110;-64
2022/11/11 14:44:40;;;;;;;32.78;12.88;;;;;;;-0.84;68.69;101116.53;4814887;28;20051;-64
2022/11/11 14:47:58;;;;;;;22.08;10.75;;;;;;;-0.78;68.20;101112.50;4832113;28;20052;-64
2022/11/11 14:51:02;;;;;;;23.38;10.73;;;;;;;-0.76;68.03;101104.88;4784350;28;20237;-64
2022/11/11 14:53:56;;;;;;;27.45;10.63;;;;;;;-0.71;67.99;101108.53;4766920;28;20528;-65
2022/11/11 14:56:43;;;;;;;16.73;8.18;;;;;;;-0.67;67.79;101110.44;4814720;28;20110;-64
2022/11/11 14:59:29;;;;;;;17.23;8.23;;;;;;;-0.64;67.50;101110.56;4835925;28;20047;-64
2022/11/11 15:02:50;;;;;;;11.60;6.53;;;;;;;-0.67;67.05;101089.91;4816982;28;20197;-64
2022/11/11 15:05:46;;;;;;;12.38;5.40;;;;;;;-0.51;67.36;101107.69;4803392;28;20047;-64
2022/11/11 15:08:50;;;;;;;15.88;7.25;;;;;;;-0.47;67.42;101104.44;4836972;28;20039;-64
2022/11/11 15:11:48;;;;;;;12.85;6.78;;;;;;;-0.40;67.39;101099.53;4836150;28;20054;-66
2022/11/11 15:14:43;;;;;;;15.13;7.35;;;;;;;-0.31;67.19;101089.66;4845924;28;20052;-64
2022/11/11 15:18:12;;;;;;;15.55;7.43;;;;;;;-0.28;66.59;101082.06;4903356;28;20039;-64
2022/11/11 15:21:06;;;;;;;19.17;7.22;;;;;;;-0.25;66.91;101069.34;4888226;28;20261;-63
2022/11/11 15:23:54;;;;;;;23.85;8.20;;;;;;;-0.19;66.19;101064.47;4889428;28;20045;-64
2022/11/11 15:26:43;;;;;;;15.27;7.70;;;;;;;-0.12;66.56;101076.75;4897387;28;20045;-64
2022/11/11 15:30:25;;;;;;;20.80;8.73;;;;;;;-0.11;66.74;101077.63;4903673;28;20057;-63
2022/11/11 15:33:28;;;;;;;17.02;8.55;;;;;;;-0.19;66.32;101054.19;4905854;28;20070;-63
2022/11/11 15:36:21;;;;;;;19.13;9.13;;;;;;;-0.43;65.95;101021.56;4889035;28;20072;-64
2022/11/11 15:39:26;;;;;;;22.92;11.00;;;;;;;-0.03;66.06;101065.94;4874509;28;20491;-64
2022/11/11 15:45:23;;;;;;;33.13;12.30;;;;;;;-0.02;65.79;101057.44;4888051;28;20049;-64
2022/11/11 15:48:31;;;;;;;27.88;12.43;;;;;;;-0.08;65.88;101041.75;4891377;28;20049;-63
2022/11/11 15:51:30;;;;;;;19.20;10.57;;;;;;;-0.03;65.96;101046.25;4833731;28;20084;-64
2022/11/11 15:57:25;;;;;;;16.10;10.15;;;;;;;-0.06;66.43;101005.03;4962690;27;20400;-81
2022/11/11 15:59:56;;;;;;;19.17;9.63;;;;;;;-0.19;66.20;100982.28;4933312;28;20040;-79
2022/11/11 16:02:30;;;;;;;19.67;9.80;;;;;;;-0.01;66.01;100988.09;4953019;28;20221;-81
2022/11/11 16:05:05;;;;;;;17.20;8.73;;;;;;;-0.08;66.09;100972.41;4952517;28;20065;-81
2022/11/11 16:07:42;;;;;;;18.65;7.78;;;;;;;-0.03;66.38;100964.03;4936728;28;20054;-81
2022/11/11 16:10:17;;;;;;;15.65;8.00;;;;;;;-0.16;66.72;100922.44;4943571;28;20052;-81
2022/11/11 16:12:57;;;;;;;12.75;6.53;;;;;;;-0.03;67.25;100928.06;4953502;28;20089;-81
2022/11/11 16:15:32;;;;;;;9.20;5.00;;;;;;;0.16;67.46;100941.63;4945508;28;20048;-81
2022/11/11 16:18:08;;;;;;;10.45;5.35;;;;;;;0.15;67.32;100932.13;4942541;28;20052;-81
2022/11/11 16:20:43;;;;;;;13.43;5.72;;;;;;;0.14;67.36;100920.13;4952775;28;20107;-81
2022/11/11 16:23:19;;;;;;;17.27;6.05;;;;;;;-0.32;66.53;100820.84;4949384;28;20056;-79
2022/11/11 16:25:51;;;;;;;15.68;6.65;;;;;;;0.16;67.06;100882.50;4959496;28;20035;-79